sensor_id;sensor_type;location;lat;lon;timestamp;pressure;altitude;pressure_sealevel;temperature;humidity
65157;BME280;52745;49.794;18.258;2022-08-01T00:01:24;98737.38;;;13.50;100.00
65157;BME280;52745;49.794;18.258;2022-08-01T00:03:50;98734.44;;;13.47;100.00
65157;BME280;52745;49.794;18.258;2022-08-01T00:06:17;98723.94;;;13.40;100.00
65157;BME280;52745;49.794;18.258;2022-08-01T00:08:44;98725.75;;;13.34;100.00
65157;BME280;52745;49.794;18.258;2022-08-01T00:11:10;98733.25;;;13.32;100.00
65157;BME280;52745;49.794;18.258;2022-08-01T00:13:36;98726.53;;;13.30;100.00
65157;BME280;52745;49.794;18.258;2022-08-01T00:16:03;98726.28;;;13.31;100.00
65157;BME280;52745;49.794;18.258;2022-08-01T00:18:30;98724.34;;;13.27;100.00
65157;BME280;52745;49.794;18.258;2022-08-01T00:20:56;98723.00;;;13.24;100.00
65157;BME280;52745;49.794;18.258;2022-08-01T00:23:23;98715.75;;;13.24;100.00
65157;BME280;52745;49.794;18.258;2022-08-01T00:25:49;98714.41;;;13.22;100.00
65157;BME280;52745;49.794;18.258;2022-08-01T00:28:16;98717.31;;;13.20;100.00
65157;BME280;52745;49.794;18.258;2022-08-01T00:30:42;98713.00;;;13.19;100.00
65157;BME280;52745;49.794;18.258;2022-08-01T00:33:09;98715.97;;;13.18;100.00
65157;BME280;52745;49.794;18.258;2022-08-01T00:35:35;98720.78;;;13.16;100.00
65157;BME280;52745;49.794;18.258;2022-08-01T00:38:02;98715.66;;;13.14;100.00
65157;BME280;52745;49.794;18.258;2022-08-01T00:40:28;98715.91;;;13.13;100.00
65157;BME280;52745;49.794;18.258;2022-08-01T00:42:55;98718.06;;;13.11;100.00
65157;BME280;52745;49.794;18.258;2022-08-01T00:45:21;98717.53;;;13.09;100.00
65157;BME280;52745;49.794;18.258;2022-08-01T00:47:48;98724.69;;;13.03;100.00
65157;BME280;52745;49.794;18.258;2022-08-01T00:50:14;98725.22;;;13.00;100.00
65157;BME280;52745;49.794;18.258;2022-08-01T00:52:41;98714.19;;;12.96;100.00
65157;BME280;52745;49.794;18.258;2022-08-01T00:55:09;98724.38;;;12.94;100.00
65157;BME280;52745;49.794;18.258;2022-08-01T00:57:38;98722.22;;;12.91;100.00
65157;BME280;52745;49.794;18.258;2022-08-01T01:00:06;98715.75;;;12.87;100.00
65157;BME280;52745;49.794;18.258;2022-08-01T01:02:33;98720.78;;;12.83;100.00
65157;BME280;52745;49.794;18.258;2022-08-01T01:05:00;98722.13;;;12.81;100.00
65157;BME280;52745;49.794;18.258;2022-08-01T01:08:02;98727.72;;;12.79;100.00
65157;BME280;52745;49.794;18.258;2022-08-01T01:10:54;98721.00;;;12.77;100.00
65157;BME280;52745;49.794;18.258;2022-08-01T01:13:37;98721.00;;;12.77;100.00
65157;BME280;52745;49.794;18.258;2022-08-01T01:16:14;98720.72;;;12.73;100.00
65157;BME280;52745;49.794;18.258;2022-08-01T01:32:00;98718.19;;;12.61;100.00
65157;BME280;52745;49.794;18.258;2022-08-01T01:34:29;98716.34;;;12.62;100.00
65157;BME280;52745;49.794;18.258;2022-08-01T01:36:59;98715.50;;;12.61;100.00
65157;BME280;52745;49.794;18.258;2022-08-01T01:39:28;98713.91;;;12.60;100.00
65157;BME280;52745;49.794;18.258;2022-08-01T01:41:57;98706.34;;;12.57;100.00
65157;BME280;52745;49.794;18.258;2022-08-01T01:44:25;98702.63;;;12.58;100.00
65157;BME280;52745;49.794;18.258;2022-08-01T01:46:53;98706.88;;;12.54;100.00
65157;BME280;52745;49.794;18.258;2022-08-01T01:49:25;98708.50;;;12.55;100.00
65157;BME280;52745;49.794;18.258;2022-08-01T01:51:54;98711.13;;;12.50;100.00
65157;BME280;52745;49.794;18.258;2022-08-01T01:54:23;98716.63;;;12.38;100.00
65157;BME280;52745;49.794;18.258;2022-08-01T01:56:51;98708.03;;;12.36;100.00
65157;BME280;52745;49.794;18.258;2022-08-01T01:59:20;98705.38;;;12.36;100.00
65157;BME280;52745;49.794;18.258;2022-08-01T02:01:53;98702.19;;;12.39;100.00
65157;BME280;52745;49.794;18.258;2022-08-01T02:04:23;98709.16;;;12.40;100.00
65157;BME280;52745;49.794;18.258;2022-08-01T02:06:51;98704.59;;;12.41;100.00
65157;BME280;52745;49.794;18.258;2022-08-01T02:09:20;98703.28;;;12.43;100.00
65157;BME280;52745;49.794;18.258;2022-08-01T02:11:48;98701.97;;;12.46;100.00
65157;BME280;52745;49.794;18.258;2022-08-01T02:14:17;98697.44;;;12.47;100.00
65157;BME280;52745;49.794;18.258;2022-08-01T02:16:47;98701.16;;;12.46;100.00
65157;BME280;52745;49.794;18.258;2022-08-01T02:19:16;98697.69;;;12.45;100.00
65157;BME280;52745;49.794;18.258;2022-08-01T02:21:51;98705.97;;;12.43;100.00
65157;BME280;52745;49.794;18.258;2022-08-01T02:26:56;98708.34;;;12.40;100.00
65157;BME280;52745;49.794;18.258;2022-08-01T02:29:28;98704.28;;;12.37;100.00
65157;BME280;52745;49.794;18.258;2022-08-01T02:32:00;98705.59;;;12.35;100.00
65157;BME280;52745;49.794;18.258;2022-08-01T02:34:29;98704.38;;;12.42;100.00
65157;BME280;52745;49.794;18.258;2022-08-01T02:37:00;98704.91;;;12.45;100.00
65157;BME280;52745;49.794;18.258;2022-08-01T02:39:30;98709.19;;;12.46;100.00
65157;BME280;52745;49.794;18.258;2022-08-01T02:42:00;98710.28;;;12.45;100.00
65157;BME280;52745;49.794;18.258;2022-08-01T02:44:32;98705.69;;;12.40;100.00
65157;BME280;52745;49.794;18.258;2022-08-01T02:47:03;98714.75;;;12.39;100.00
65157;BME280;52745;49.794;18.258;2022-08-01T02:49:35;98708.09;;;12.41;100.00
65157;BME280;52745;49.794;18.258;2022-08-01T02:52:05;98702.50;;;12.43;100.00
65157;BME280;52745;49.794;18.258;2022-08-01T02:54:33;98707.03;;;12.42;100.00
65157;BME280;52745;49.794;18.258;2022-08-01T02:57:02;98702.19;;;12.39;100.00
65157;BME280;52745;49.794;18.258;2022-08-01T02:59:31;98707.81;;;12.38;100.00
65157;BME280;52745;49.794;18.258;2022-08-01T03:01:59;98695.47;;;12.37;100.00
65157;BME280;52745;49.794;18.258;2022-08-01T03:04:26;98706.16;;;12.37;100.00
65157;BME280;52745;49.794;18.258;2022-08-01T03:06:55;98696.78;;;12.34;100.00
65157;BME280;52745;49.794;18.258;2022-08-01T03:09:26;98699.69;;;12.33;100.00
65157;BME280;52745;49.794;18.258;2022-08-01T03:11:55;98704.00;;;12.34;100.00
65157;BME280;52745;49.794;18.258;2022-08-01T03:14:24;98694.66;;;12.36;100.00
65157;BME280;52745;49.794;18.258;2022-08-01T03:16:53;98696.03;;;12.39;100.00
65157;BME280;52745;49.794;18.258;2022-08-01T03:19:22;98693.66;;;12.42;100.00
65157;BME280;52745;49.794;18.258;2022-08-01T03:21:51;98696.03;;;12.39;100.00
65157;BME280;52745;49.794;18.258;2022-08-01T03:24:18;98702.44;;;12.38;100.00
65157;BME280;52745;49.794;18.258;2022-08-01T03:26:47;98709.91;;;12.36;100.00
65157;BME280;52745;49.794;18.258;2022-08-01T03:29:21;98706.16;;;12.37;100.00
65157;BME280;52745;49.794;18.258;2022-08-01T03:31:49;98697.91;;;12.38;100.00
65157;BME280;52745;49.794;18.258;2022-08-01T03:34:16;98709.13;;;12.35;100.00
65157;BME280;52745;49.794;18.258;2022-08-01T03:36:49;98710.91;;;12.30;100.00
65157;BME280;52745;49.794;18.258;2022-08-01T03:39:22;98708.50;;;12.28;100.00
65157;BME280;52745;49.794;18.258;2022-08-01T03:41:59;98704.22;;;12.27;100.00
65157;BME280;52745;49.794;18.258;2022-08-01T03:44:30;98711.69;;;12.25;100.00
65157;BME280;52745;49.794;18.258;2022-08-01T03:47:04;98710.91;;;12.30;100.00
65157;BME280;52745;49.794;18.258;2022-08-01T03:49:32;98709.81;;;12.26;100.00
65157;BME280;52745;49.794;18.258;2022-08-01T03:52:02;98706.88;;;12.27;100.00
65157;BME280;52745;49.794;18.258;2022-08-01T03:54:32;98711.38;;;12.21;100.00
65157;BME280;52745;49.794;18.258;2022-08-01T03:57:01;98712.47;;;12.26;100.00
65157;BME280;52745;49.794;18.258;2022-08-01T03:59:29;98714.66;;;12.29;100.00
65157;BME280;52745;49.794;18.258;2022-08-01T04:01:56;98712.03;;;12.34;100.00
65157;BME280;52745;49.794;18.258;2022-08-01T04:04:23;98713.72;;;12.40;100.00
65157;BME280;52745;49.794;18.258;2022-08-01T04:06:50;98711.03;;;12.40;100.00
65157;BME280;52745;49.794;18.258;2022-08-01T04:09:21;98716.88;;;12.37;100.00
65157;BME280;52745;49.794;18.258;2022-08-01T04:11:48;98716.06;;;12.36;100.00
65157;BME280;52745;49.794;18.258;2022-08-01T04:14:15;98718.00;;;12.41;100.00
65157;BME280;52745;49.794;18.258;2022-08-01T04:16:41;98714.88;;;12.49;100.00
65157;BME280;52745;49.794;18.258;2022-08-01T04:19:08;98721.34;;;12.53;100.00
65157;BME280;52745;49.794;18.258;2022-08-01T04:21:35;98717.38;;;12.61;100.00
65157;BME280;52745;49.794;18.258;2022-08-01T04:24:06;98714.50;;;12.68;100.00
65157;BME280;52745;49.794;18.258;2022-08-01T04:26:35;98713.47;;;12.74;100.00
65157;BME280;52745;49.794;18.258;2022-08-01T04:29:02;98716.44;;;12.77;100.00
65157;BME280;52745;49.794;18.258;2022-08-01T04:31:31;98717.28;;;12.78;100.00
65157;BME280;52745;49.794;18.258;2022-08-01T04:34:00;98719.44;;;12.81;100.00
65157;BME280;52745;49.794;18.258;2022-08-01T04:36:28;98711.97;;;12.88;100.00
65157;BME280;52745;49.794;18.258;2022-08-01T04:38:59;98714.16;;;12.91;100.00
65157;BME280;52745;49.794;18.258;2022-08-01T04:41:26;98717.13;;;12.95;100.00
65157;BME280;52745;49.794;18.258;2022-08-01T04:43:53;98716.34;;;12.99;100.00
65157;BME280;52745;49.794;18.258;2022-08-01T04:46:21;98707.28;;;13.05;100.00
65157;BME280;52745;49.794;18.258;2022-08-01T04:48:49;98713.22;;;13.13;99.61
65157;BME280;52745;49.794;18.258;2022-08-01T04:51:17;98711.41;;;13.18;98.89
65157;BME280;52745;49.794;18.258;2022-08-01T04:53:45;98710.38;;;13.24;98.44
65157;BME280;52745;49.794;18.258;2022-08-01T04:56:14;98710.44;;;13.30;98.46
65157;BME280;52745;49.794;18.258;2022-08-01T04:58:41;98714.53;;;13.37;97.50
65157;BME280;52745;49.794;18.258;2022-08-01T05:01:08;98711.09;;;13.47;97.81
65157;BME280;52745;49.794;18.258;2022-08-01T05:03:35;98715.69;;;13.57;97.69
65157;BME280;52745;49.794;18.258;2022-08-01T05:06:03;98716.00;;;13.65;97.66
65157;BME280;52745;49.794;18.258;2022-08-01T05:08:29;98716.31;;;13.69;95.75
65157;BME280;52745;49.794;18.258;2022-08-01T05:10:56;98716.34;;;13.79;96.27
65157;BME280;52745;49.794;18.258;2022-08-01T05:13:22;98725.78;;;13.87;96.12
65157;BME280;52745;49.794;18.258;2022-08-01T05:15:49;98722.06;;;13.98;95.99
65157;BME280;52745;49.794;18.258;2022-08-01T05:18:15;98715.41;;;14.11;96.12
65157;BME280;52745;49.794;18.258;2022-08-01T05:20:42;98722.94;;;14.24;94.54
65157;BME280;52745;49.794;18.258;2022-08-01T05:23:08;98717.34;;;14.31;92.25
65157;BME280;52745;49.794;18.258;2022-08-01T05:25:35;98727.03;;;14.47;91.60
65157;BME280;52745;49.794;18.258;2022-08-01T05:28:01;98727.91;;;14.63;91.46
65157;BME280;52745;49.794;18.258;2022-08-01T05:30:28;98715.53;;;14.78;90.99
65157;BME280;52745;49.794;18.258;2022-08-01T05:32:55;98729.00;;;14.93;89.22
65157;BME280;52745;49.794;18.258;2022-08-01T05:35:21;98724.94;;;15.11;88.72
65157;BME280;52745;49.794;18.258;2022-08-01T05:37:48;98717.16;;;15.30;88.84
65157;BME280;52745;49.794;18.258;2022-08-01T05:40:14;98722.22;;;15.52;88.00
65157;BME280;52745;49.794;18.258;2022-08-01T05:42:41;98721.09;;;15.79;85.95
65157;BME280;52745;49.794;18.258;2022-08-01T05:45:08;98715.84;;;16.08;84.02
65157;BME280;52745;49.794;18.258;2022-08-01T05:47:35;98725.66;;;16.33;83.35
65157;BME280;52745;49.794;18.258;2022-08-01T05:50:01;98720.88;;;16.64;81.95
65157;BME280;52745;49.794;18.258;2022-08-01T05:52:28;98728.06;;;16.79;80.28
65157;BME280;52745;49.794;18.258;2022-08-01T05:54:55;98730.69;;;16.94;80.30
65157;BME280;52745;49.794;18.258;2022-08-01T05:57:21;98730.81;;;17.08;80.57
65157;BME280;52745;49.794;18.258;2022-08-01T05:59:47;98733.44;;;17.19;80.73
65157;BME280;52745;49.794;18.258;2022-08-01T06:02:14;98731.16;;;17.31;79.60
65157;BME280;52745;49.794;18.258;2022-08-01T06:04:40;98729.16;;;17.42;78.71
65157;BME280;52745;49.794;18.258;2022-08-01T06:07:07;98734.41;;;17.57;77.75
65157;BME280;52745;49.794;18.258;2022-08-01T06:09:34;98729.31;;;17.79;78.53
65157;BME280;52745;49.794;18.258;2022-08-01T06:12:00;98729.81;;;17.87;75.59
65157;BME280;52745;49.794;18.258;2022-08-01T06:14:27;98732.16;;;17.93;75.92
65157;BME280;52745;49.794;18.258;2022-08-01T06:16:53;98729.28;;;18.09;75.57
65157;BME280;52745;49.794;18.258;2022-08-01T06:19:20;98729.63;;;18.21;75.68
65157;BME280;52745;49.794;18.258;2022-08-01T06:21:46;98717.59;;;18.32;74.44
65157;BME280;52745;49.794;18.258;2022-08-01T06:24:13;98717.75;;;18.41;72.99
65157;BME280;52745;49.794;18.258;2022-08-01T06:26:39;98716.59;;;18.47;72.96
65157;BME280;52745;49.794;18.258;2022-08-01T06:29:06;98720.75;;;18.58;72.83
65157;BME280;52745;49.794;18.258;2022-08-01T06:31:32;98723.47;;;18.77;72.19
65157;BME280;52745;49.794;18.258;2022-08-01T06:33:59;98734.28;;;18.77;72.03
65157;BME280;52745;49.794;18.258;2022-08-01T06:36:25;98735.13;;;18.92;72.81
65157;BME280;52745;49.794;18.258;2022-08-01T06:38:52;98735.16;;;19.06;71.59
65157;BME280;52745;49.794;18.258;2022-08-01T06:41:18;98741.34;;;18.92;70.55
65157;BME280;52745;49.794;18.258;2022-08-01T06:43:45;98740.31;;;18.88;71.68
65157;BME280;52745;49.794;18.258;2022-08-01T06:46:11;98740.78;;;18.95;70.99
65157;BME280;52745;49.794;18.258;2022-08-01T06:48:38;98738.34;;;18.94;71.83
65157;BME280;52745;49.794;18.258;2022-08-01T06:51:05;98742.59;;;19.00;71.40
65157;BME280;52745;49.794;18.258;2022-08-01T06:53:36;98743.66;;;18.99;70.47
65157;BME280;52745;49.794;18.258;2022-08-01T06:56:03;98742.50;;;18.67;71.12
65157;BME280;52745;49.794;18.258;2022-08-01T06:58:30;98739.59;;;18.64;70.18
65157;BME280;52745;49.794;18.258;2022-08-01T07:00:57;98737.81;;;18.73;71.16
65157;BME280;52745;49.794;18.258;2022-08-01T07:03:24;98736.91;;;18.83;70.85
65157;BME280;52745;49.794;18.258;2022-08-01T07:05:50;98734.16;;;19.01;71.55
65157;BME280;52745;49.794;18.258;2022-08-01T07:08:17;98730.81;;;19.23;69.16
65157;BME280;52745;49.794;18.258;2022-08-01T07:10:43;98728.84;;;19.57;68.83
65157;BME280;52745;49.794;18.258;2022-08-01T07:13:10;98728.97;;;19.65;66.76
65157;BME280;52745;49.794;18.258;2022-08-01T07:15:38;98730.25;;;19.68;66.50
65157;BME280;52745;49.794;18.258;2022-08-01T07:18:04;98735.84;;;19.91;67.77
65157;BME280;52745;49.794;18.258;2022-08-01T07:20:31;98730.19;;;20.15;68.75
65157;BME280;52745;49.794;18.258;2022-08-01T07:22:57;98737.81;;;20.26;66.19
65157;BME280;52745;49.794;18.258;2022-08-01T07:25:24;98729.03;;;20.43;65.58
65157;BME280;52745;49.794;18.258;2022-08-01T07:27:50;98725.03;;;20.77;65.71
65157;BME280;52745;49.794;18.258;2022-08-01T07:30:17;98731.44;;;21.04;63.96
65157;BME280;52745;49.794;18.258;2022-08-01T07:32:43;98724.03;;;20.96;65.81
65157;BME280;52745;49.794;18.258;2022-08-01T07:35:10;98732.66;;;20.98;65.40
65157;BME280;52745;49.794;18.258;2022-08-01T07:37:36;98719.13;;;21.29;63.45
65157;BME280;52745;49.794;18.258;2022-08-01T07:40:03;98726.84;;;21.67;64.29
65157;BME280;52745;49.794;18.258;2022-08-01T07:42:31;98723.25;;;21.98;65.31
65157;BME280;52745;49.794;18.258;2022-08-01T07:44:58;98727.78;;;22.20;62.28
65157;BME280;52745;49.794;18.258;2022-08-01T07:47:25;98724.59;;;22.18;62.79
65157;BME280;52745;49.794;18.258;2022-08-01T07:49:52;98723.84;;;22.35;62.15
65157;BME280;52745;49.794;18.258;2022-08-01T07:52:19;98715.84;;;22.47;61.00
65157;BME280;52745;49.794;18.258;2022-08-01T07:54:45;98716.66;;;22.65;61.50
65157;BME280;52745;49.794;18.258;2022-08-01T07:57:12;98715.50;;;22.31;61.61
65157;BME280;52745;49.794;18.258;2022-08-01T07:59:38;98715.00;;;22.20;62.35
65157;BME280;52745;49.794;18.258;2022-08-01T08:02:05;98716.16;;;22.28;63.49
65157;BME280;52745;49.794;18.258;2022-08-01T08:04:31;98722.09;;;22.30;62.15
65157;BME280;52745;49.794;18.258;2022-08-01T08:06:58;98717.47;;;22.48;63.99
65157;BME280;52745;49.794;18.258;2022-08-01T08:09:24;98718.56;;;22.47;62.88
65157;BME280;52745;49.794;18.258;2022-08-01T08:11:51;98725.72;;;22.17;62.64
65157;BME280;52745;49.794;18.258;2022-08-01T08:14:18;98723.66;;;21.74;63.39
65157;BME280;52745;49.794;18.258;2022-08-01T08:16:45;98720.41;;;21.94;63.86
65157;BME280;52745;49.794;18.258;2022-08-01T08:19:12;98722.34;;;22.20;64.34
65157;BME280;52745;49.794;18.258;2022-08-01T08:21:39;98727.84;;;22.28;63.73
65157;BME280;52745;49.794;18.258;2022-08-01T08:24:07;98723.97;;;22.21;63.14
65157;BME280;52745;49.794;18.258;2022-08-01T08:26:46;98733.31;;;22.72;62.09
65157;BME280;52745;49.794;18.258;2022-08-01T08:29:14;98721.78;;;22.66;61.93
65157;BME280;52745;49.794;18.258;2022-08-01T08:31:40;98728.66;;;22.46;63.68
65157;BME280;52745;49.794;18.258;2022-08-01T08:34:07;98731.22;;;22.60;63.35
65157;BME280;52745;49.794;18.258;2022-08-01T08:36:34;98728.31;;;22.30;64.20
65157;BME280;52745;49.794;18.258;2022-08-01T08:39:00;98740.50;;;22.50;64.02
65157;BME280;52745;49.794;18.258;2022-08-01T08:41:29;98745.13;;;22.41;63.87
65157;BME280;52745;49.794;18.258;2022-08-01T08:43:57;98741.16;;;22.56;63.38
65157;BME280;52745;49.794;18.258;2022-08-01T08:46:26;98750.75;;;22.80;63.15
65157;BME280;52745;49.794;18.258;2022-08-01T08:48:55;98746.75;;;23.12;61.25
65157;BME280;52745;49.794;18.258;2022-08-01T08:51:26;98750.50;;;23.46;57.71
65157;BME280;52745;49.794;18.258;2022-08-01T08:53:57;98747.25;;;24.00;56.86
65157;BME280;52745;49.794;18.258;2022-08-01T08:56:25;98754.28;;;24.09;57.71
65157;BME280;52745;49.794;18.258;2022-08-01T08:58:52;98741.47;;;24.31;56.82
65157;BME280;52745;49.794;18.258;2022-08-01T09:01:19;98747.66;;;25.94;54.33
65157;BME280;52745;49.794;18.258;2022-08-01T09:03:45;98736.56;;;27.37;48.97
65157;BME280;52745;49.794;18.258;2022-08-01T09:06:12;98750.00;;;27.42;48.26
65157;BME280;52745;49.794;18.258;2022-08-01T09:08:38;98746.13;;;27.15;47.55
65157;BME280;52745;49.794;18.258;2022-08-01T09:11:05;98747.72;;;26.88;48.43
65157;BME280;52745;49.794;18.258;2022-08-01T09:13:31;98749.38;;;26.24;50.72
65157;BME280;52745;49.794;18.258;2022-08-01T09:15:58;98750.88;;;25.38;52.43
65157;BME280;52745;49.794;18.258;2022-08-01T09:18:36;98750.47;;;25.73;51.96
65157;BME280;52745;49.794;18.258;2022-08-01T09:23:38;98750.06;;;25.96;50.82
65157;BME280;52745;49.794;18.258;2022-08-01T09:26:06;98752.88;;;26.12;50.83
65157;BME280;52745;49.794;18.258;2022-08-01T09:28:33;98752.31;;;26.31;50.37
65157;BME280;52745;49.794;18.258;2022-08-01T09:31:06;98755.16;;;26.22;50.03
65157;BME280;52745;49.794;18.258;2022-08-01T09:33:56;98756.38;;;25.63;50.87
65157;BME280;52745;49.794;18.258;2022-08-01T09:36:43;98758.75;;;25.52;52.45
65157;BME280;52745;49.794;18.258;2022-08-01T09:39:15;98765.41;;;25.30;52.30
65157;BME280;52745;49.794;18.258;2022-08-01T09:41:41;98762.56;;;25.27;52.45
65157;BME280;52745;49.794;18.258;2022-08-01T09:44:08;98757.81;;;25.36;53.46
65157;BME280;52745;49.794;18.258;2022-08-01T09:46:35;98753.28;;;25.52;52.08
65157;BME280;52745;49.794;18.258;2022-08-01T09:49:05;98757.81;;;26.06;51.08
65157;BME280;52745;49.794;18.258;2022-08-01T09:51:36;98752.88;;;26.24;50.04
65157;BME280;52745;49.794;18.258;2022-08-01T09:54:05;98761.53;;;26.38;49.14
65157;BME280;52745;49.794;18.258;2022-08-01T09:56:40;98763.38;;;26.22;48.87
65157;BME280;52745;49.794;18.258;2022-08-01T09:59:09;98758.13;;;25.92;49.28
65157;BME280;52745;49.794;18.258;2022-08-01T10:01:46;98757.97;;;25.52;49.97
65157;BME280;52745;49.794;18.258;2022-08-01T10:04:20;98753.81;;;25.33;53.84
65157;BME280;52745;49.794;18.258;2022-08-01T10:06:49;98762.38;;;25.11;51.81
65157;BME280;52745;49.794;18.258;2022-08-01T10:09:32;98767.22;;;24.72;53.37
65157;BME280;52745;49.794;18.258;2022-08-01T10:12:00;98767.56;;;24.41;54.13
65157;BME280;52745;49.794;18.258;2022-08-01T10:14:28;98766.41;;;24.21;54.75
65157;BME280;52745;49.794;18.258;2022-08-01T10:16:56;98757.47;;;23.82;56.50
65157;BME280;52745;49.794;18.258;2022-08-01T10:19:25;98757.66;;;24.06;56.14
65157;BME280;52745;49.794;18.258;2022-08-01T10:21:54;98762.97;;;24.03;55.23
65157;BME280;52745;49.794;18.258;2022-08-01T10:24:21;98754.06;;;23.93;55.18
65157;BME280;52745;49.794;18.258;2022-08-01T10:26:51;98757.19;;;24.04;55.25
65157;BME280;52745;49.794;18.258;2022-08-01T10:29:22;98757.25;;;24.25;55.01
65157;BME280;52745;49.794;18.258;2022-08-01T10:31:51;98759.09;;;24.63;53.03
65157;BME280;52745;49.794;18.258;2022-08-01T10:34:19;98764.72;;;25.00;53.36
65157;BME280;52745;49.794;18.258;2022-08-01T10:36:46;98764.06;;;25.24;53.35
65157;BME280;52745;49.794;18.258;2022-08-01T10:39:13;98757.16;;;25.18;51.62
65157;BME280;52745;49.794;18.258;2022-08-01T10:41:40;98752.72;;;25.59;51.75
65157;BME280;52745;49.794;18.258;2022-08-01T10:44:08;98758.44;;;25.78;51.35
65157;BME280;52745;49.794;18.258;2022-08-01T10:46:39;98751.41;;;25.77;49.55
65157;BME280;52745;49.794;18.258;2022-08-01T10:49:14;98752.09;;;26.11;51.75
65157;BME280;52745;49.794;18.258;2022-08-01T10:51:42;98751.34;;;26.51;48.32
65157;BME280;52745;49.794;18.258;2022-08-01T10:54:10;98753.44;;;26.82;47.06
65157;BME280;52745;49.794;18.258;2022-08-01T10:56:44;98752.47;;;27.63;47.19
65157;BME280;52745;49.794;18.258;2022-08-01T10:59:15;98753.13;;;27.72;46.24
65157;BME280;52745;49.794;18.258;2022-08-01T11:01:55;98749.56;;;27.72;46.73
65157;BME280;52745;49.794;18.258;2022-08-01T11:07:54;98745.06;;;27.95;46.98
65157;BME280;52745;49.794;18.258;2022-08-01T11:10:27;98738.88;;;28.34;47.36
65157;BME280;52745;49.794;18.258;2022-08-01T11:12:56;98743.72;;;28.76;42.88
65157;BME280;52745;49.794;18.258;2022-08-01T11:15:23;98734.88;;;28.66;42.50
65157;BME280;52745;49.794;18.258;2022-08-01T11:17:51;98739.53;;;28.82;41.48
65157;BME280;52745;49.794;18.258;2022-08-01T11:20:24;98735.44;;;29.34;40.84
65157;BME280;52745;49.794;18.258;2022-08-01T11:25:23;98733.75;;;31.57;38.65
65157;BME280;52745;49.794;18.258;2022-08-01T11:38:46;98724.13;;;32.47;34.88
65157;BME280;52745;49.794;18.258;2022-08-01T11:41:25;98720.78;;;31.24;35.56
65157;BME280;52745;49.794;18.258;2022-08-01T11:43:59;98722.16;;;31.41;36.11
65157;BME280;52745;49.794;18.258;2022-08-01T11:54:37;98715.22;;;28.84;40.22
65157;BME280;52745;49.794;18.258;2022-08-01T11:57:42;98722.13;;;29.82;38.95
65157;BME280;52745;49.794;18.258;2022-08-01T12:00:13;98705.16;;;30.94;36.77
65157;BME280;52745;49.794;18.258;2022-08-01T12:02:40;98700.81;;;31.79;36.23
65157;BME280;52745;49.794;18.258;2022-08-01T12:05:10;98711.72;;;30.25;37.74
65157;BME280;52745;49.794;18.258;2022-08-01T12:07:39;98705.28;;;29.87;37.68
65157;BME280;52745;49.794;18.258;2022-08-01T12:10:16;98703.16;;;30.30;38.29
65157;BME280;52745;49.794;18.258;2022-08-01T12:12:54;98703.38;;;30.79;39.26
65157;BME280;52745;49.794;18.258;2022-08-01T12:15:22;98703.34;;;31.12;37.59
65157;BME280;52745;49.794;18.258;2022-08-01T12:17:55;98707.31;;;31.15;36.15
65157;BME280;52745;49.794;18.258;2022-08-01T12:20:23;98703.94;;;30.58;36.51
65157;BME280;52745;49.794;18.258;2022-08-01T12:22:54;98700.06;;;30.32;36.81
65157;BME280;52745;49.794;18.258;2022-08-01T12:25:21;98695.75;;;30.08;38.39
65157;BME280;52745;49.794;18.258;2022-08-01T12:27:48;98708.94;;;29.95;37.95
65157;BME280;52745;49.794;18.258;2022-08-01T12:30:17;98707.16;;;29.34;39.36
65157;BME280;52745;49.794;18.258;2022-08-01T12:32:46;98698.53;;;28.93;38.84
65157;BME280;52745;49.794;18.258;2022-08-01T12:35:19;98701.47;;;28.45;39.77
65157;BME280;52745;49.794;18.258;2022-08-01T12:38:00;98701.97;;;27.96;39.72
65157;BME280;52745;49.794;18.258;2022-08-01T12:40:32;98699.88;;;27.26;43.75
65157;BME280;52745;49.794;18.258;2022-08-01T12:43:03;98699.13;;;26.84;45.52
65157;BME280;52745;49.794;18.258;2022-08-01T12:45:34;98705.09;;;26.74;45.06
65157;BME280;52745;49.794;18.258;2022-08-01T12:48:03;98703.66;;;26.65;46.57
65157;BME280;52745;49.794;18.258;2022-08-01T12:50:33;98707.44;;;26.48;49.83
65157;BME280;52745;49.794;18.258;2022-08-01T12:53:02;98707.81;;;26.34;48.32
65157;BME280;52745;49.794;18.258;2022-08-01T12:55:28;98710.38;;;26.14;47.92
65157;BME280;52745;49.794;18.258;2022-08-01T12:58:07;98705.38;;;25.92;50.91
65157;BME280;52745;49.794;18.258;2022-08-01T13:00:34;98712.66;;;25.88;51.10
65157;BME280;52745;49.794;18.258;2022-08-01T13:03:09;98713.78;;;25.87;52.55
65157;BME280;52745;49.794;18.258;2022-08-01T13:05:55;98717.47;;;25.91;53.02
65157;BME280;52745;49.794;18.258;2022-08-01T13:08:30;98733.16;;;25.81;52.02
65157;BME280;52745;49.794;18.258;2022-08-01T13:11:01;98738.59;;;25.57;51.57
65157;BME280;52745;49.794;18.258;2022-08-01T13:13:38;98734.78;;;25.25;53.96
65157;BME280;52745;49.794;18.258;2022-08-01T13:16:06;98734.69;;;25.00;53.20
65157;BME280;52745;49.794;18.258;2022-08-01T13:18:34;98736.94;;;24.65;54.57
65157;BME280;52745;49.794;18.258;2022-08-01T13:23:33;98744.19;;;23.07;63.13
65157;BME280;52745;49.794;18.258;2022-08-01T13:26:00;98745.94;;;22.77;65.33
65157;BME280;52745;49.794;18.258;2022-08-01T13:28:27;98765.16;;;22.63;67.21
65157;BME280;52745;49.794;18.258;2022-08-01T13:31:04;98755.88;;;22.55;68.16
65157;BME280;52745;49.794;18.258;2022-08-01T13:33:43;98756.34;;;22.48;69.33
65157;BME280;52745;49.794;18.258;2022-08-01T13:36:11;98752.03;;;22.47;70.64
65157;BME280;52745;49.794;18.258;2022-08-01T13:38:39;98744.81;;;22.78;71.35
65157;BME280;52745;49.794;18.258;2022-08-01T13:41:25;98733.63;;;23.14;70.60